createdAt,value
2023-03-31T00:02:48.734Z,12.70
2023-03-31T00:05:55.998Z,11.40
2023-03-31T00:09:01.805Z,11.60
2023-03-31T00:12:03.509Z,11.40
2023-03-31T00:15:05.441Z,11.70
2023-03-31T00:18:07.152Z,11.40
2023-03-31T00:21:14.965Z,11.30
2023-03-31T00:24:17.629Z,11.30
2023-03-31T00:27:19.507Z,11.40
2023-03-31T00:30:21.412Z,11.70
2023-03-31T00:33:23.474Z,11.60
2023-03-31T00:36:28.228Z,11.20
2023-03-31T00:39:31.988Z,11.40
2023-03-31T00:42:33.549Z,11.30
2023-03-31T00:45:36.042Z,11.60
2023-03-31T00:48:47.176Z,11.60
2023-03-31T00:51:50.949Z,13.30
2023-03-31T00:54:59.814Z,11.80
2023-03-31T00:58:03.245Z,11.30
2023-03-31T01:01:04.939Z,11.40
2023-03-31T01:04:09.703Z,12.50
2023-03-31T01:07:40.253Z,11.70
2023-03-31T01:10:46.769Z,11.50
2023-03-31T01:13:50.895Z,11.50
2023-03-31T01:16:53.519Z,11.50
2023-03-31T01:20:23.148Z,12.00
2023-03-31T01:23:54.450Z,11.70
2023-03-31T01:27:33.595Z,11.50
2023-03-31T01:31:14.653Z,11.60
2023-03-31T01:34:18.987Z,11.80
2023-03-31T01:37:50.205Z,11.80
2023-03-31T01:41:08.353Z,11.40
2023-03-31T01:44:18.750Z,11.40
2023-03-31T01:47:25.414Z,13.10
2023-03-31T01:50:41.462Z,11.90
2023-03-31T01:53:49.925Z,11.40
2023-03-31T01:57:01.910Z,11.50
2023-03-31T02:00:09.598Z,11.70
2023-03-31T02:03:14.638Z,11.30
2023-03-31T02:06:22.128Z,11.40
2023-03-31T02:09:33.556Z,11.50
2023-03-31T02:12:38.365Z,11.20
2023-03-31T02:15:44.581Z,11.30
2023-03-31T02:18:47.222Z,11.50
2023-03-31T02:21:52.163Z,11.50
2023-03-31T02:24:55.829Z,13.10
2023-03-31T02:28:02.391Z,11.60
2023-03-31T02:31:12.691Z,11.30
2023-03-31T02:34:14.718Z,11.80
2023-03-31T02:37:16.777Z,11.30
2023-03-31T02:40:22.625Z,11.20
2023-03-31T02:43:24.223Z,11.60
2023-03-31T02:46:27.491Z,12.10
2023-03-31T02:49:29.729Z,11.40
2023-03-31T02:52:46.841Z,11.20
2023-03-31T02:56:05.041Z,11.50
2023-03-31T02:59:32.245Z,11.70
2023-03-31T03:02:49.471Z,11.00
2023-03-31T03:06:04.666Z,12.20
2023-03-31T03:09:29.776Z,11.40
2023-03-31T03:12:48.567Z,11.50
2023-03-31T03:16:01.450Z,11.30
2023-03-31T03:19:05.544Z,11.10
2023-03-31T03:22:09.206Z,11.40
2023-03-31T03:25:13.846Z,11.00
2023-03-31T03:28:15.411Z,11.30
2023-03-31T03:31:17.378Z,11.10
2023-03-31T03:34:20.208Z,11.10
2023-03-31T03:37:23.087Z,11.10
2023-03-31T03:40:24.659Z,11.20
2023-03-31T03:43:26.557Z,11.20
2023-03-31T03:46:28.231Z,11.00
2023-03-31T03:49:29.911Z,11.40
2023-03-31T03:52:31.487Z,11.20
2023-03-31T03:55:33.252Z,11.20
2023-03-31T03:58:35.140Z,11.40
2023-03-31T04:01:37.159Z,11.40
2023-03-31T04:04:39.093Z,11.30
2023-03-31T04:07:40.815Z,11.50
2023-03-31T04:10:46.407Z,11.10
2023-03-31T04:13:49.055Z,10.90
2023-03-31T04:16:50.577Z,11.30
2023-03-31T04:19:52.865Z,10.90
2023-03-31T04:22:54.565Z,10.70
2023-03-31T04:25:56.171Z,11.20
2023-03-31T04:29:01.656Z,10.90
2023-03-31T04:32:03.467Z,11.20
2023-03-31T04:35:05.307Z,11.20
2023-03-31T04:38:09.066Z,11.30
2023-03-31T04:41:11.264Z,11.30
2023-03-31T04:44:12.923Z,11.00
2023-03-31T04:47:14.476Z,10.80
2023-03-31T04:50:17.227Z,11.40
2023-03-31T04:53:18.965Z,10.90
2023-03-31T04:56:20.807Z,10.70
2023-03-31T04:59:22.374Z,10.90
2023-03-31T05:02:25.510Z,10.80
2023-03-31T05:05:27.586Z,11.30
2023-03-31T05:08:29.373Z,10.80
2023-03-31T05:11:31.101Z,10.90
2023-03-31T05:14:32.681Z,12.80
2023-03-31T05:17:36.401Z,10.80
2023-03-31T05:20:38.832Z,11.30
2023-03-31T05:23:40.750Z,12.70
2023-03-31T05:26:47.663Z,10.70
2023-03-31T05:29:49.196Z,10.70
2023-03-31T05:32:50.819Z,10.90
2023-03-31T05:35:52.523Z,10.90
2023-03-31T05:38:54.252Z,10.90
2023-03-31T05:41:55.872Z,11.00
2023-03-31T05:44:57.554Z,10.60
2023-03-31T05:47:59.147Z,11.20
2023-03-31T05:51:01.625Z,10.90
2023-03-31T05:54:03.362Z,10.80
2023-03-31T05:57:04.981Z,10.80
2023-03-31T06:00:10.364Z,10.90
2023-03-31T06:03:12.094Z,13.50
2023-03-31T06:06:14.816Z,10.70
2023-03-31T06:09:17.759Z,11.10
2023-03-31T06:12:19.321Z,11.00
2023-03-31T06:15:20.908Z,10.80
2023-03-31T06:18:22.718Z,11.20
2023-03-31T06:21:24.404Z,10.90
2023-03-31T06:24:26.125Z,10.90
2023-03-31T06:27:27.665Z,10.90
2023-03-31T06:30:29.222Z,11.20
2023-03-31T06:33:31.902Z,11.00
2023-03-31T06:36:33.505Z,10.90
2023-03-31T06:39:35.159Z,11.00
2023-03-31T06:42:36.712Z,10.80
2023-03-31T06:45:38.363Z,10.60
2023-03-31T06:48:41.518Z,11.20
2023-03-31T06:51:43.208Z,10.30
2023-03-31T06:54:45.409Z,11.00
2023-03-31T06:57:47.064Z,10.70
2023-03-31T07:00:49.438Z,10.70
2023-03-31T07:03:51.162Z,10.70
2023-03-31T07:06:52.800Z,10.70
2023-03-31T07:09:56.385Z,11.00
2023-03-31T07:12:58.251Z,10.90
2023-03-31T07:15:59.949Z,11.10
2023-03-31T07:19:03.584Z,12.00
2023-03-31T07:22:06.027Z,11.10
2023-03-31T07:25:09.036Z,11.10
2023-03-31T07:28:10.998Z,11.00
2023-03-31T07:31:16.047Z,11.10
2023-03-31T07:34:17.627Z,10.80
2023-03-31T07:37:19.257Z,11.10
2023-03-31T07:40:26.314Z,10.80
2023-03-31T07:43:28.166Z,10.90
2023-03-31T07:46:30.207Z,10.70
2023-03-31T07:49:35.664Z,11.10
2023-03-31T07:52:37.349Z,10.80
2023-03-31T07:55:38.913Z,11.50
2023-03-31T07:58:40.514Z,11.40
2023-03-31T08:01:42.097Z,11.20
2023-03-31T08:04:45.274Z,10.80
2023-03-31T08:07:49.168Z,13.40
2023-03-31T08:10:50.904Z,11.30
2023-03-31T08:13:52.830Z,11.20
2023-03-31T08:16:55.437Z,12.70
2023-03-31T08:19:57.975Z,11.10
2023-03-31T08:23:01.496Z,11.20
2023-03-31T08:26:17.822Z,11.20
2023-03-31T08:29:19.872Z,11.40
2023-03-31T08:32:24.480Z,11.10
2023-03-31T08:35:26.491Z,10.90
2023-03-31T08:38:28.080Z,10.90
2023-03-31T08:41:51.268Z,11.00
2023-03-31T08:45:28.410Z,11.20
2023-03-31T08:48:37.534Z,11.30
2023-03-31T08:51:47.419Z,11.20
2023-03-31T08:54:55.187Z,11.30
2023-03-31T08:58:23.795Z,11.30
2023-03-31T09:01:47.712Z,11.50
2023-03-31T09:05:05.871Z,12.10
2023-03-31T09:08:13.425Z,11.90
2023-03-31T09:11:44.744Z,11.70
2023-03-31T09:14:53.636Z,11.90
2023-03-31T09:17:59.091Z,12.00
2023-03-31T09:21:10.553Z,12.10
2023-03-31T09:24:23.653Z,12.00
2023-03-31T09:27:31.296Z,12.60
2023-03-31T09:30:36.183Z,13.60
2023-03-31T09:33:44.365Z,12.40
2023-03-31T09:36:46.290Z,11.80
2023-03-31T09:39:47.918Z,12.00
2023-03-31T09:42:59.263Z,12.00
2023-03-31T09:46:08.437Z,12.10
2023-03-31T09:49:18.138Z,12.00
2023-03-31T09:52:37.151Z,11.80
2023-03-31T09:55:50.534Z,10.70
2023-03-31T09:58:52.082Z,12.10
2023-03-31T10:01:58.883Z,12.30
2023-03-31T10:05:00.929Z,12.50
2023-03-31T10:08:14.389Z,12.70
2023-03-31T10:11:16.441Z,12.30
2023-03-31T10:14:24.008Z,12.90
2023-03-31T10:17:28.363Z,13.20
2023-03-31T10:20:38.440Z,14.50
2023-03-31T10:23:46.680Z,13.60
2023-03-31T10:26:55.376Z,14.10
2023-03-31T10:29:59.478Z,13.30
2023-03-31T10:36:22.538Z,11.50
2023-03-31T10:39:31.538Z,11.60
2023-03-31T10:42:33.493Z,11.50
2023-03-31T10:45:47.943Z,11.70
2023-03-31T10:48:51.516Z,11.70
2023-03-31T10:51:58.867Z,11.70
2023-03-31T10:55:01.701Z,12.10
2023-03-31T10:58:14.806Z,12.50
2023-03-31T11:01:22.413Z,12.80
2023-03-31T11:04:43.230Z,12.70
2023-03-31T11:07:54.034Z,13.00
2023-03-31T11:11:20.357Z,13.40
2023-03-31T11:14:40.071Z,13.00
2023-03-31T11:17:56.736Z,12.20
2023-03-31T11:21:31.697Z,12.60
2023-03-31T11:24:47.384Z,13.00
2023-03-31T11:28:20.849Z,12.70
2023-03-31T11:31:40.942Z,11.40
2023-03-31T11:34:56.618Z,12.80
2023-03-31T11:37:58.175Z,13.00
2023-03-31T11:41:14.373Z,13.00
2023-03-31T11:44:18.777Z,12.90
2023-03-31T11:47:25.018Z,13.10
2023-03-31T11:50:30.625Z,13.60
2023-03-31T11:53:37.816Z,13.40
2023-03-31T11:56:41.227Z,13.20
2023-03-31T11:59:44.594Z,13.40
2023-03-31T12:03:13.317Z,13.00
2023-03-31T12:06:22.067Z,13.50
2023-03-31T12:09:52.946Z,13.00
2023-03-31T12:13:05.358Z,13.30
2023-03-31T12:16:29.709Z,13.30
2023-03-31T12:19:53.512Z,13.40
2023-03-31T12:22:57.750Z,13.70
2023-03-31T12:26:14.634Z,13.30
2023-03-31T12:29:37.577Z,13.30
2023-03-31T12:32:46.463Z,13.30
2023-03-31T12:36:04.375Z,13.30
2023-03-31T12:39:51.052Z,13.10
2023-03-31T12:43:08.201Z,12.60
2023-03-31T12:46:40.814Z,12.40
2023-03-31T12:50:14.200Z,12.70
2023-03-31T12:53:32.535Z,12.50
2023-03-31T12:57:03.660Z,12.90
2023-03-31T13:00:11.737Z,13.10
2023-03-31T13:04:09.507Z,14.40
2023-03-31T13:07:28.437Z,13.20
2023-03-31T13:10:32.181Z,13.70
2023-03-31T13:13:33.920Z,13.60
2023-03-31T13:16:36.845Z,13.90
2023-03-31T13:19:41.450Z,13.60
2023-03-31T13:22:48.284Z,13.70
2023-03-31T13:25:53.875Z,13.50
2023-03-31T13:29:15.516Z,13.40
2023-03-31T13:32:24.061Z,13.60
2023-03-31T13:35:30.821Z,14.30
2023-03-31T13:38:43.128Z,14.50
2023-03-31T13:42:01.617Z,14.70
2023-03-31T13:45:19.153Z,12.20
2023-03-31T13:48:52.937Z,14.50
2023-03-31T13:51:59.394Z,14.50
2023-03-31T13:55:19.716Z,14.40
2023-03-31T13:58:46.678Z,14.20
2023-03-31T14:02:06.163Z,13.80
2023-03-31T14:05:29.790Z,14.40
2023-03-31T14:08:52.425Z,14.50
2023-03-31T14:11:54.560Z,15.00
2023-03-31T14:14:56.140Z,14.90
2023-03-31T14:17:58.415Z,14.30
2023-03-31T14:21:06.364Z,14.50
2023-03-31T14:24:30.768Z,14.40
2023-03-31T14:28:00.872Z,14.50
2023-03-31T14:31:20.806Z,14.70
2023-03-31T14:34:26.122Z,14.50
2023-03-31T14:37:28.137Z,14.50
2023-03-31T14:40:30.229Z,15.70
2023-03-31T14:43:34.966Z,14.30
2023-03-31T14:46:39.443Z,14.60
2023-03-31T14:49:41.196Z,14.30
2023-03-31T14:52:52.586Z,14.40
2023-03-31T14:56:06.518Z,14.10
2023-03-31T14:59:08.966Z,15.40
2023-03-31T15:02:17.599Z,14.30
2023-03-31T15:05:28.662Z,15.70
2023-03-31T15:08:32.764Z,13.40
2023-03-31T15:11:34.941Z,13.60
2023-03-31T15:14:43.446Z,13.30
2023-03-31T15:17:47.222Z,12.80
2023-03-31T15:20:48.852Z,13.10
2023-03-31T15:23:56.086Z,12.80
2023-03-31T15:27:01.185Z,12.40
2023-03-31T15:30:24.723Z,13.10
2023-03-31T15:33:36.438Z,12.20
2023-03-31T15:36:41.155Z,12.70
2023-03-31T15:39:47.090Z,13.00
2023-03-31T15:43:01.732Z,12.30
2023-03-31T15:46:24.301Z,14.80
2023-03-31T15:49:27.084Z,12.70
2023-03-31T15:52:34.145Z,13.00
2023-03-31T15:58:57.920Z,12.80
2023-03-31T16:02:01.107Z,12.80
2023-03-31T16:05:08.012Z,13.10
2023-03-31T16:08:17.353Z,12.90
2023-03-31T16:11:24.617Z,12.60
2023-03-31T16:14:33.033Z,13.10
2023-03-31T16:17:49.420Z,12.80
2023-03-31T16:20:55.897Z,12.90
2023-03-31T16:23:59.353Z,13.90
2023-03-31T16:27:06.154Z,12.60
2023-03-31T16:30:17.901Z,12.60
2023-03-31T16:33:23.249Z,12.40
2023-03-31T16:36:24.972Z,12.30
2023-03-31T16:39:26.545Z,12.00
2023-03-31T16:42:28.489Z,12.60
2023-03-31T16:45:30.012Z,12.30
2023-03-31T16:48:33.806Z,12.40
2023-03-31T16:51:35.560Z,12.30
2023-03-31T16:54:37.249Z,12.50
2023-03-31T16:57:38.776Z,13.40
2023-03-31T17:00:41.779Z,12.40
2023-03-31T17:03:43.527Z,12.20
2023-03-31T17:06:45.230Z,12.10
2023-03-31T17:09:46.992Z,12.40
2023-03-31T17:12:48.629Z,12.40
2023-03-31T17:15:52.183Z,12.20
2023-03-31T17:18:57.774Z,11.60
2023-03-31T17:22:01.900Z,11.70
2023-03-31T17:25:04.928Z,11.90
2023-03-31T17:28:06.527Z,11.80
2023-03-31T17:31:12.084Z,11.90
2023-03-31T17:34:13.639Z,12.70
2023-03-31T17:37:22.094Z,12.00
2023-03-31T17:40:26.877Z,11.80
2023-03-31T17:43:29.570Z,13.30
2023-03-31T17:46:31.618Z,13.10
2023-03-31T17:49:33.310Z,12.10
2023-03-31T17:52:35.739Z,11.60
2023-03-31T17:55:38.412Z,11.60
2023-03-31T17:58:40.204Z,11.30
2023-03-31T18:01:42.039Z,11.60
2023-03-31T18:04:44.110Z,13.70
2023-03-31T18:07:45.722Z,11.40
2023-03-31T18:10:47.364Z,11.50
2023-03-31T18:13:49.287Z,11.50
2023-03-31T18:16:51.058Z,11.30
2023-03-31T18:19:52.620Z,11.60
2023-03-31T18:22:54.217Z,12.60
2023-03-31T18:25:55.919Z,11.20
2023-03-31T18:28:58.874Z,11.20
2023-03-31T18:32:00.715Z,11.50
2023-03-31T18:35:02.547Z,11.40
2023-03-31T18:38:04.537Z,10.50
2023-03-31T18:41:06.109Z,10.90
2023-03-31T18:45:06.759Z,11.10
2023-03-31T18:48:19.436Z,11.20
2023-03-31T18:51:51.878Z,9.50
2023-03-31T18:55:08.648Z,11.00
2023-03-31T18:58:28.552Z,11.50
2023-03-31T19:01:41.660Z,12.60
2023-03-31T19:04:57.509Z,13.70
2023-03-31T19:08:09.821Z,13.40
2023-03-31T19:11:16.798Z,12.20
2023-03-31T19:14:18.776Z,11.40
2023-03-31T19:17:20.377Z,13.50
2023-03-31T19:20:22.091Z,11.10
2023-03-31T19:23:23.689Z,11.40
2023-03-31T19:26:28.304Z,11.30
2023-03-31T19:29:31.724Z,13.60
2023-03-31T19:32:33.299Z,10.80
2023-03-31T19:35:35.434Z,11.20
2023-03-31T19:38:37.052Z,11.20
2023-03-31T19:41:39.109Z,10.90
2023-03-31T19:44:43.062Z,11.20
2023-03-31T19:47:44.668Z,11.00
2023-03-31T19:50:57.246Z,11.10
2023-03-31T19:53:58.817Z,11.90
2023-03-31T19:57:00.467Z,12.10
2023-03-31T20:00:04.072Z,11.20
2023-03-31T20:03:07.767Z,10.60
2023-03-31T20:06:12.587Z,10.40
2023-03-31T20:09:14.194Z,10.60
2023-03-31T20:12:15.785Z,12.60
2023-03-31T20:15:17.854Z,10.90
2023-03-31T20:18:19.587Z,10.70
2023-03-31T20:21:23.976Z,10.70
2023-03-31T20:24:27.303Z,8.00
2023-03-31T20:27:28.927Z,10.60
2023-03-31T20:30:30.941Z,10.40
2023-03-31T20:33:32.700Z,10.70
2023-03-31T20:36:34.505Z,9.60
2023-03-31T20:39:36.150Z,12.80
2023-03-31T20:42:37.789Z,10.30
2023-03-31T20:45:39.374Z,10.40
2023-03-31T20:48:43.059Z,10.80
2023-03-31T20:51:45.600Z,12.00
2023-03-31T20:54:47.226Z,10.80
2023-03-31T20:57:49.349Z,10.50
2023-03-31T21:00:56.889Z,10.60
2023-03-31T21:04:01.075Z,10.80
2023-03-31T21:07:02.933Z,10.20
2023-03-31T21:10:05.385Z,10.50
2023-03-31T21:13:07.117Z,10.00
2023-03-31T21:16:09.101Z,11.10
2023-03-31T21:19:11.531Z,7.90
2023-03-31T21:22:13.086Z,10.10
2023-03-31T21:25:14.978Z,10.30
2023-03-31T21:28:19.803Z,10.60
2023-03-31T21:31:27.139Z,10.20
2023-03-31T21:34:28.796Z,10.20
2023-03-31T21:37:30.710Z,10.30
2023-03-31T21:40:32.270Z,10.80
2023-03-31T21:43:34.075Z,10.40
2023-03-31T21:46:36.188Z,10.20
2023-03-31T21:49:38.004Z,10.60
2023-03-31T21:52:39.570Z,12.30
2023-03-31T21:55:41.377Z,10.70
2023-03-31T21:58:43.042Z,11.70
2023-03-31T22:01:44.683Z,10.20
2023-03-31T22:04:46.769Z,10.10
2023-03-31T22:07:48.507Z,11.20
2023-03-31T22:10:54.670Z,10.80
2023-03-31T22:13:57.486Z,10.50
2023-03-31T22:16:59.066Z,10.70
2023-03-31T22:20:00.627Z,10.40
2023-03-31T22:23:02.199Z,10.40
2023-03-31T22:26:03.866Z,10.30
2023-03-31T22:29:05.490Z,10.30
2023-03-31T22:32:07.179Z,10.50
2023-03-31T22:35:09.189Z,10.10
2023-03-31T22:38:13.402Z,10.10
2023-03-31T22:41:15.578Z,10.30
2023-03-31T22:44:17.503Z,10.20
2023-03-31T22:47:19.336Z,10.30
2023-03-31T22:50:21.012Z,10.30
2023-03-31T22:53:23.117Z,10.00
2023-03-31T22:56:24.922Z,10.40
2023-03-31T22:59:26.487Z,10.10
2023-03-31T23:02:28.090Z,10.50
2023-03-31T23:05:30.172Z,10.70
2023-03-31T23:08:33.224Z,10.40
2023-03-31T23:11:34.791Z,12.10
2023-03-31T23:14:36.456Z,10.30
2023-03-31T23:17:38.102Z,10.40
2023-03-31T23:20:39.851Z,10.10
2023-03-31T23:23:42.169Z,10.50
2023-03-31T23:26:43.748Z,10.10
2023-03-31T23:29:46.072Z,10.20
2023-03-31T23:32:47.590Z,10.50
2023-03-31T23:35:49.584Z,10.00
2023-03-31T23:38:53.477Z,10.20
2023-03-31T23:41:55.084Z,10.00
2023-03-31T23:44:56.661Z,9.80
2023-03-31T23:47:58.632Z,9.80
2023-03-31T23:51:00.839Z,9.90
2023-03-31T23:54:02.412Z,10.10
2023-03-31T23:57:04.193Z,10.30
